createdAt,value
2017-05-31T10:47:33.375Z,47.30
2017-05-31T10:50:02.275Z,47.10
2017-05-31T10:52:31.264Z,45.30
2017-05-31T10:55:00.300Z,47.80
2017-05-31T10:57:29.143Z,45.80
2017-05-31T10:59:58.040Z,45.90
2017-05-31T11:02:27.046Z,46.40
2017-05-31T11:04:55.896Z,47.00
2017-05-31T11:07:24.727Z,48.20
2017-05-31T11:09:53.686Z,47.40
2017-05-31T11:12:22.694Z,46.70
2017-05-31T11:14:51.671Z,46.80
2017-05-31T11:17:20.520Z,46.00
2017-05-31T11:19:48.603Z,45.90
2017-05-31T11:22:17.655Z,44.90
2017-05-31T11:24:46.668Z,45.90
2017-05-31T11:27:15.522Z,46.40
2017-05-31T11:29:44.351Z,45.80
2017-05-31T11:32:13.346Z,45.40
2017-05-31T11:34:42.166Z,47.70
2017-05-31T11:37:11.127Z,45.70
2017-05-31T11:39:40.062Z,47.20
2017-05-31T11:42:09.103Z,45.20
2017-05-31T11:44:37.975Z,45.50
2017-05-31T11:47:06.970Z,46.40
2017-05-31T11:49:36.094Z,45.30
2017-05-31T11:57:07.155Z,47.30
2017-05-31T11:59:35.975Z,47.00
2017-05-31T12:02:04.878Z,47.80
2017-05-31T12:04:33.859Z,45.80
2017-05-31T12:07:02.821Z,47.90
2017-05-31T12:09:31.818Z,46.00
2017-05-31T12:12:00.921Z,47.00
2017-05-31T12:14:30.024Z,47.20
2017-05-31T12:16:57.458Z,47.00
2017-05-31T12:19:24.289Z,47.60
2017-05-31T12:21:51.076Z,47.40
2017-05-31T12:24:17.887Z,46.90
2017-05-31T12:26:44.699Z,47.00
2017-05-31T12:29:11.601Z,46.30
2017-05-31T12:31:38.498Z,46.90
2017-05-31T12:34:05.427Z,46.60
2017-05-31T12:36:32.814Z,46.30
2017-05-31T12:38:59.850Z,45.60
2017-05-31T12:41:26.842Z,45.10
2017-05-31T12:43:53.786Z,43.80
2017-05-31T12:46:20.607Z,43.50
2017-05-31T12:48:46.655Z,43.50
2017-05-31T12:51:13.442Z,43.90
2017-05-31T12:53:40.234Z,43.90
2017-05-31T12:56:06.341Z,43.90
2017-05-31T12:58:33.122Z,42.60
2017-05-31T13:01:00.130Z,42.20
2017-05-31T13:03:26.178Z,42.20
2017-05-31T13:05:52.958Z,42.40
2017-05-31T13:08:19.750Z,42.40
2017-05-31T13:10:45.797Z,42.30
2017-05-31T13:13:12.607Z,42.00
2017-05-31T13:15:39.390Z,42.80
2017-05-31T13:18:06.182Z,43.90
2017-05-31T13:20:32.986Z,44.50
2017-05-31T13:22:59.895Z,45.00
2017-05-31T13:25:25.935Z,45.00
2017-05-31T13:27:52.722Z,45.20
2017-05-31T13:30:19.519Z,45.20
2017-05-31T13:32:45.578Z,45.20
2017-05-31T13:35:12.371Z,45.10
2017-05-31T13:37:39.159Z,44.70
2017-05-31T13:40:05.959Z,45.00
2017-05-31T13:42:32.027Z,45.00
2017-05-31T13:44:58.834Z,44.70
2017-05-31T13:47:25.627Z,45.50
2017-05-31T13:49:52.419Z,44.70
2017-05-31T13:52:18.477Z,44.70
2017-05-31T13:54:45.267Z,44.10
2017-05-31T13:57:12.078Z,44.80
2017-05-31T13:59:38.870Z,44.60
2017-05-31T14:02:04.906Z,44.50
2017-05-31T14:04:31.702Z,44.60
2017-05-31T14:06:58.505Z,44.50
2017-05-31T14:09:24.565Z,44.50
2017-05-31T14:11:51.360Z,43.90
2017-05-31T14:14:18.162Z,43.30
2017-05-31T14:16:44.958Z,44.00
2017-05-31T14:19:42.265Z,44.00
2017-05-31T14:22:24.033Z,44.50
2017-05-31T14:24:50.825Z,44.00
2017-05-31T14:27:16.875Z,44.00
2017-05-31T14:29:43.662Z,43.50
2017-05-31T14:32:10.448Z,43.90
2017-05-31T14:34:37.254Z,42.90
2017-05-31T14:37:04.039Z,43.50
2017-05-31T14:39:30.850Z,43.40
2017-05-31T14:41:57.642Z,43.40
2017-05-31T14:44:24.446Z,43.00
2017-05-31T14:46:51.246Z,42.70
2017-05-31T14:49:18.050Z,43.90
2017-05-31T14:51:44.842Z,42.80
2017-05-31T14:54:11.638Z,43.50
2017-05-31T14:56:38.466Z,42.40
2017-05-31T14:59:05.275Z,42.50
2017-05-31T15:01:32.078Z,43.10
2017-05-31T15:03:59.036Z,43.50
2017-05-31T15:06:25.866Z,43.40
2017-05-31T15:08:52.677Z,42.70
2017-05-31T15:11:19.470Z,43.00
2017-05-31T15:13:46.268Z,42.20
2017-05-31T15:16:13.058Z,42.30
2017-05-31T15:18:39.854Z,42.50
2017-05-31T15:21:06.692Z,42.30
2017-05-31T15:23:33.489Z,42.20
2017-05-31T15:26:00.324Z,42.60
2017-05-31T15:28:27.126Z,42.20
2017-05-31T15:30:53.934Z,42.30
2017-05-31T15:33:20.747Z,42.90
2017-05-31T15:35:46.795Z,42.90
2017-05-31T15:38:13.642Z,42.60
2017-05-31T15:40:40.479Z,42.60
2017-05-31T15:43:07.283Z,42.80
2017-05-31T15:45:34.094Z,42.70
2017-05-31T15:48:15.875Z,42.80
2017-05-31T15:50:42.687Z,43.20
2017-05-31T15:53:09.509Z,42.30
2017-05-31T15:55:36.307Z,42.70
2017-05-31T15:58:03.122Z,42.30
2017-05-31T16:00:29.915Z,43.10
2017-05-31T16:02:56.732Z,42.10
2017-05-31T16:05:22.787Z,42.00
2017-05-31T16:07:49.587Z,42.50
2017-05-31T16:10:16.395Z,41.70
2017-05-31T16:12:43.183Z,42.30
2017-05-31T16:15:10.002Z,42.10
2017-05-31T16:17:36.071Z,42.10
2017-05-31T16:20:02.875Z,41.40
2017-05-31T16:22:29.691Z,41.50
2017-05-31T16:24:56.506Z,42.00
2017-05-31T16:27:23.340Z,41.70
2017-05-31T16:29:50.134Z,42.10
2017-05-31T16:32:16.950Z,41.40
2017-05-31T16:34:43.738Z,41.60
2017-05-31T16:37:10.556Z,41.70
2017-05-31T16:39:37.359Z,41.80
2017-05-31T16:42:04.162Z,41.30
2017-05-31T16:44:30.984Z,41.40
2017-05-31T16:46:57.802Z,41.60
2017-05-31T16:49:24.603Z,42.10
2017-05-31T16:51:50.654Z,42.00
2017-05-31T16:54:17.473Z,42.20
2017-05-31T16:56:44.267Z,41.50
2017-05-31T16:59:11.058Z,41.40
2017-05-31T17:01:52.863Z,41.50
2017-05-31T17:04:19.646Z,41.90
2017-05-31T17:06:46.447Z,42.40
2017-05-31T17:09:13.234Z,42.00
2017-05-31T17:11:40.106Z,41.20
2017-05-31T17:14:06.960Z,41.50
2017-05-31T17:16:33.782Z,41.80
2017-05-31T17:19:00.574Z,42.30
2017-05-31T17:21:26.796Z,42.30
2017-05-31T17:23:53.629Z,41.50
2017-05-31T17:26:20.435Z,41.80
2017-05-31T17:28:47.231Z,41.90
2017-05-31T17:31:14.039Z,41.70
2017-05-31T17:33:40.841Z,41.90
2017-05-31T17:36:07.658Z,41.70
2017-05-31T17:38:34.459Z,41.80
2017-05-31T17:41:01.239Z,41.80
2017-05-31T17:43:27.290Z,41.80
2017-05-31T17:45:54.096Z,42.20
2017-05-31T17:48:20.147Z,42.20
2017-05-31T17:50:46.941Z,42.10
2017-05-31T17:53:13.747Z,42.30
2017-05-31T17:55:40.566Z,42.40
2017-05-31T17:58:07.362Z,42.70
2017-05-31T18:00:34.168Z,42.30
2017-05-31T18:03:00.227Z,42.30
2017-05-31T18:05:57.826Z,42.60
2017-05-31T18:08:24.627Z,42.60
2017-05-31T18:10:51.427Z,42.10
2017-05-31T18:13:18.245Z,42.40
2017-05-31T18:15:45.046Z,42.40
2017-05-31T18:18:11.858Z,42.90
2017-05-31T18:20:37.915Z,42.50
2017-05-31T18:23:05.146Z,42.60
2017-05-31T18:25:31.963Z,42.60
2017-05-31T18:27:58.762Z,42.60
2017-05-31T18:30:25.562Z,43.10
2017-05-31T18:32:52.367Z,43.20
2017-05-31T18:35:19.178Z,42.90
2017-05-31T18:38:00.954Z,43.20
2017-05-31T18:40:27.756Z,43.70
2017-05-31T18:42:54.546Z,43.70
2017-05-31T18:45:36.351Z,43.90
2017-05-31T18:48:02.410Z,43.90
2017-05-31T18:50:29.227Z,44.80
2017-05-31T18:52:56.027Z,44.60
2017-05-31T18:55:22.827Z,44.30
2017-05-31T18:57:49.666Z,44.50
2017-05-31T19:00:16.475Z,44.30
2017-05-31T19:02:42.726Z,44.20
2017-05-31T19:05:09.529Z,44.90
2017-05-31T19:07:36.350Z,44.40
2017-05-31T19:10:03.166Z,44.90
2017-05-31T19:12:29.959Z,44.70
2017-05-31T19:14:56.774Z,45.20
2017-05-31T19:17:23.571Z,45.40
2017-05-31T19:19:50.378Z,45.40
2017-05-31T19:22:17.174Z,45.30
2017-05-31T19:24:43.262Z,45.30
2017-05-31T19:27:10.054Z,45.60
2017-05-31T19:29:36.895Z,45.70
2017-05-31T19:32:03.690Z,45.30
2017-05-31T19:34:30.490Z,45.10
2017-05-31T19:36:57.295Z,45.60
2017-05-31T19:39:23.342Z,45.50
2017-05-31T19:41:50.175Z,45.60
2017-05-31T19:44:16.970Z,45.70
2017-05-31T19:46:43.782Z,45.90
2017-05-31T19:49:09.850Z,45.90
2017-05-31T19:51:36.666Z,45.60
2017-05-31T19:54:03.477Z,45.80
2017-05-31T19:56:30.554Z,45.40
2017-05-31T19:58:57.357Z,46.10
2017-05-31T20:01:24.142Z,46.00
2017-05-31T20:03:50.945Z,45.90
2017-05-31T20:06:17.746Z,46.40
2017-05-31T20:08:44.534Z,46.20
2017-05-31T20:11:11.334Z,46.40
2017-05-31T20:13:38.118Z,46.40
2017-05-31T20:16:04.179Z,46.30
2017-05-31T20:18:30.999Z,46.60
2017-05-31T20:20:57.809Z,46.40
2017-05-31T20:23:24.618Z,46.60
2017-05-31T20:25:51.443Z,46.40
2017-05-31T20:28:17.503Z,46.40
2017-05-31T20:30:44.294Z,46.50
2017-05-31T20:33:11.081Z,46.80
2017-05-31T20:35:37.876Z,46.60
2017-05-31T20:38:03.938Z,46.60
2017-05-31T20:40:30.734Z,46.70
2017-05-31T20:42:57.550Z,46.50
2017-05-31T20:45:24.358Z,46.70
2017-05-31T20:47:50.418Z,46.70
2017-05-31T20:50:17.215Z,46.80
2017-05-31T20:52:44.003Z,46.70
2017-05-31T20:55:10.806Z,46.80
2017-05-31T20:57:37.605Z,46.80
2017-05-31T21:00:04.436Z,46.80
2017-05-31T21:02:31.268Z,46.60
2017-05-31T21:04:58.055Z,46.80
2017-05-31T21:07:24.841Z,47.00
2017-05-31T21:09:51.642Z,46.90
2017-05-31T21:12:18.443Z,46.80
2017-05-31T21:14:45.269Z,47.20
2017-05-31T21:17:12.079Z,47.10
2017-05-31T21:19:38.143Z,47.10
2017-05-31T21:22:04.970Z,47.00
2017-05-31T21:24:31.782Z,46.90
2017-05-31T21:26:58.571Z,47.10
2017-05-31T21:29:24.630Z,47.10
2017-05-31T21:31:51.430Z,47.10
2017-05-31T21:34:18.331Z,47.00
2017-05-31T21:36:45.130Z,47.10
2017-05-31T21:39:11.926Z,47.20
2017-05-31T21:41:38.720Z,47.20
2017-05-31T21:44:04.775Z,47.20
2017-05-31T21:46:31.578Z,47.30
2017-05-31T21:48:58.362Z,47.20
2017-05-31T21:51:25.175Z,47.40
2017-05-31T21:53:51.221Z,47.40
2017-05-31T21:56:18.031Z,47.30
2017-05-31T21:58:44.847Z,47.20
2017-05-31T22:01:11.650Z,47.20
2017-05-31T22:03:38.443Z,47.30
2017-05-31T22:06:04.518Z,47.20
2017-05-31T22:08:31.334Z,47.30
2017-05-31T22:10:58.146Z,47.30
2017-05-31T22:13:24.975Z,47.30
2017-05-31T22:15:51.781Z,47.40
2017-05-31T22:18:18.595Z,47.60
2017-05-31T22:20:45.382Z,47.50
2017-05-31T22:23:12.188Z,47.50
2017-05-31T22:25:38.970Z,47.50
2017-05-31T22:28:05.763Z,47.60
2017-05-31T22:30:32.569Z,47.50
2017-05-31T22:32:59.358Z,47.50
2017-05-31T22:35:25.426Z,47.40
2017-05-31T22:37:52.218Z,47.60
2017-05-31T22:40:19.063Z,47.60
2017-05-31T22:42:45.853Z,47.70
2017-05-31T22:45:12.682Z,47.90
2017-05-31T22:47:39.474Z,48.50
2017-05-31T22:50:06.270Z,47.70
2017-05-31T22:52:33.066Z,47.70
2017-05-31T22:55:14.819Z,47.70
2017-05-31T22:57:41.623Z,47.70
2017-05-31T23:00:07.663Z,47.60
2017-05-31T23:02:49.405Z,47.70
2017-05-31T23:05:16.192Z,47.80
2017-05-31T23:07:42.999Z,47.90
2017-05-31T23:10:09.795Z,47.90
2017-05-31T23:12:36.591Z,47.90
2017-05-31T23:15:03.375Z,47.70
2017-05-31T23:17:29.422Z,47.70
2017-05-31T23:19:56.218Z,47.90
2017-05-31T23:22:23.002Z,47.80
2017-05-31T23:24:49.802Z,48.60
2017-05-31T23:27:16.570Z,48.00
2017-05-31T23:29:43.364Z,48.00
2017-05-31T23:32:10.154Z,48.10
2017-05-31T23:34:36.974Z,48.00
2017-05-31T23:37:03.775Z,47.80
2017-05-31T23:39:30.588Z,48.00
2017-05-31T23:41:56.650Z,48.00
2017-05-31T23:44:38.402Z,48.00
2017-05-31T23:47:04.460Z,48.00
2017-05-31T23:49:31.275Z,48.30
2017-05-31T23:51:58.054Z,48.00
2017-05-31T23:54:24.846Z,48.20
2017-05-31T23:57:06.602Z,48.40
2017-05-31T23:59:33.402Z,48.10
